Terminal Aerodrome Forecast
Issued by NWS San Angelo, TX

Home | Current Version | Previous Version | Text Only | Print | Product List | Glossary On
Versions: 1 2 3 4 5 6 7 8 9 10 11 12 13 14 15 16 17 18 19 20
000
FTUS44 KSJT 071100 CCA
TAFSJT
TAF COR
KSJT 071127Z 0712/0812 19012KT P6SM VCSH OVC025
     FM071400 18011KT 5SM -SHRA VCTS OVC025CB
      TEMPO 0714/0717 3SM TSRA OVC025CB
     FM071900 18013KT P6SM VCSH OVC035
     FM072200 18014G22KT 5SM SHRA VCTS OVC040CB
     FM080300 18010KT 5SM SHRA VCTS BKN025CB=

USA.gov is the U.S. government's official web portal to all federal, state and local government web resources and services.